Time;durP1;ratioP1;P1;durP2;ratioP2;P2;SDS_P1;SDS_P2;PMS_P1;PMS_P2;Temp;Humidity;BMP_temperature;BMP_pressure;BME280_temperature;BME280_humidity;BME280_pressure;Samples;Min_cycle;Max_cycle;Signal;HPM_P1;HPM_P2
2023/03/02 00:01:40;;;;;;;194.60;119.30;;;;;;;-4.04;100.00;99796.74;109655;1250;64186;-78
2023/03/02 00:04:11;;;;;;;174.00;111.70;;;;;;;-4.04;100.00;99796.74;109637;1250;58968;-78
2023/03/02 00:06:38;;;;;;;189.50;119.80;;;;;;;-4.04;100.00;99795.01;108652;1250;1002456;-77
2023/03/02 00:09:05;;;;;;;198.70;123.00;;;;;;;-4.02;100.00;99794.33;108875;1250;1003129;-78
2023/03/02 00:11:34;;;;;;;203.80;124.50;;;;;;;-4.00;100.00;99790.17;109565;1250;59137;-78
2023/03/02 00:14:01;;;;;;;199.80;125.70;;;;;;;-3.98;100.00;99790.17;109563;1250;63814;-78
2023/03/02 00:16:28;;;;;;;189.10;121.10;;;;;;;-3.98;100.00;99790.35;109640;1250;58991;-79
2023/03/02 00:18:54;;;;;;;193.20;119.20;;;;;;;-3.99;100.00;99790.70;109640;1250;59042;-78
2023/03/02 00:21:23;;;;;;;208.20;123.20;;;;;;;-3.99;100.00;99792.09;109532;1249;65781;-78
2023/03/02 00:23:51;;;;;;;199.30;126.20;;;;;;;-4.00;100.00;99795.39;109618;1251;60727;-78
2023/03/02 00:26:18;;;;;;;249.90;162.60;;;;;;;-4.00;100.00;99801.81;109606;1251;64958;-78
2023/03/02 00:28:44;;;;;;;231.50;146.50;;;;;;;-4.02;100.00;99796.59;109621;1250;59266;-78
2023/03/02 00:31:11;;;;;;;211.20;133.80;;;;;;;-4.03;100.00;99797.11;108910;1250;1003189;-78
2023/03/02 00:33:37;;;;;;;211.90;128.80;;;;;;;-4.04;100.00;99794.84;108898;1250;1002351;-78
2023/03/02 00:36:05;;;;;;;183.40;116.10;;;;;;;-4.06;100.00;99789.97;109623;1250;60701;-79
2023/03/02 00:38:36;;;;;;;189.00;119.70;;;;;;;-4.09;100.00;99786.66;109632;1250;64992;-79
2023/03/02 00:41:03;;;;;;;185.40;114.90;;;;;;;-4.11;100.00;99784.39;109635;1250;59021;-78
2023/03/02 00:43:29;;;;;;;177.50;110.70;;;;;;;-4.13;100.00;99785.95;109659;1250;59023;-78
2023/03/02 00:45:57;;;;;;;186.10;114.60;;;;;;;-4.17;100.00;99783.14;109665;1250;67120;-78
2023/03/02 00:48:24;;;;;;;185.60;110.50;;;;;;;-4.21;100.00;99786.07;109686;1250;61056;-78
2023/03/02 00:50:50;;;;;;;173.80;109.20;;;;;;;-4.25;100.00;99789.17;109603;1250;64672;-79
2023/03/02 00:53:17;;;;;;;181.50;109.70;;;;;;;-4.30;100.00;99787.76;109632;1250;59019;-77
2023/03/02 00:55:53;;;;;;;185.40;113.40;;;;;;;-4.35;100.00;99782.89;109660;1250;59161;-77
2023/03/02 00:58:20;;;;;;;200.10;116.40;;;;;;;-4.40;100.00;99781.81;109639;1251;65805;-79
2023/03/02 01:00:47;;;;;;;195.00;118.10;;;;;;;-4.46;100.00;99782.46;109435;1250;60337;-79
2023/03/02 01:03:14;;;;;;;197.50;117.10;;;;;;;-4.51;100.00;99777.73;108900;1250;1003233;-77
2023/03/02 01:05:41;;;;;;;209.10;122.10;;;;;;;-4.56;100.00;99772.70;109637;1250;58964;-78
2023/03/02 01:08:07;;;;;;;240.60;131.70;;;;;;;-4.59;100.00;99773.38;109681;1250;59019;-78
2023/03/02 01:10:34;;;;;;;197.20;119.00;;;;;;;-4.60;100.00;99771.79;109443;1250;64689;-77
2023/03/02 01:13:01;;;;;;;201.60;120.90;;;;;;;-4.62;100.00;99768.15;109664;1250;61041;-77
2023/03/02 01:15:27;;;;;;;186.00;115.60;;;;;;;-4.66;100.00;99762.91;109568;1250;63704;-77
2023/03/02 01:17:54;;;;;;;180.40;114.30;;;;;;;-4.69;100.00;99763.41;109619;1250;58988;-78
2023/03/02 01:20:20;;;;;;;186.50;113.50;;;;;;;-4.72;100.00;99763.58;108869;1250;1002660;-78
2023/03/02 01:22:47;;;;;;;182.40;112.60;;;;;;;-4.74;100.00;99760.27;108892;1250;1002395;-78
2023/03/02 01:25:13;;;;;;;181.30;110.80;;;;;;;-4.76;100.00;99759.04;108947;1250;1003118;-77
2023/03/02 01:27:40;;;;;;;188.50;115.50;;;;;;;-4.78;100.00;99756.41;108605;1250;1002539;-78
2023/03/02 01:30:07;;;;;;;178.80;110.00;;;;;;;-4.80;100.00;99753.11;109628;1250;59007;-78
2023/03/02 01:32:34;;;;;;;166.50;104.00;;;;;;;-4.84;100.00;99752.90;109681;1250;58986;-78
2023/03/02 01:35:01;;;;;;;178.30;106.60;;;;;;;-4.89;100.00;99754.95;109704;1250;66754;-78
2023/03/02 01:37:28;;;;;;;166.40;105.40;;;;;;;-4.93;100.00;99752.16;109681;1250;60724;-79
2023/03/02 01:39:54;;;;;;;165.00;102.00;;;;;;;-4.96;100.00;99751.42;109551;1250;63704;-78
2023/03/02 01:42:21;;;;;;;171.10;106.30;;;;;;;-4.99;100.00;99746.89;108935;1250;1002557;-78
2023/03/02 01:44:55;;;;;;;168.70;105.30;;;;;;;-5.02;100.00;99749.66;108981;1250;1002837;-78
2023/03/02 01:47:25;;;;;;;156.40;102.20;;;;;;;-5.02;100.00;99747.92;109654;1250;66676;-78
2023/03/02 01:49:59;;;;;;;177.50;106.20;;;;;;;-5.02;100.00;99746.02;109619;1251;59755;-78
2023/03/02 01:52:37;;;;;;;171.50;107.40;;;;;;;-5.03;100.00;99741.48;108868;1250;1002554;-78
2023/03/02 01:55:06;;;;;;;169.60;107.80;;;;;;;-5.04;100.00;99738.72;108799;1250;1002360;-78
2023/03/02 01:57:42;;;;;;;;;;;;;;;-5.05;100.00;99740.09;109683;1250;58912;-78
2023/03/02 02:00:14;;;;;;;163.30;98.50;;;;;;;-5.08;100.00;99733.15;109484;1250;67129;-79
2023/03/02 02:02:41;;;;;;;167.00;105.60;;;;;;;-5.09;100.00;99729.67;109181;1250;59845;-78
2023/03/02 02:05:10;;;;;;;182.10;109.10;;;;;;;-5.08;100.00;99727.26;109642;1250;64250;-77
2023/03/02 02:07:37;;;;;;;184.40;110.30;;;;;;;-5.06;100.00;99722.59;109648;1250;59016;-78
2023/03/02 02:10:05;;;;;;;174.50;107.40;;;;;;;-5.06;100.00;99715.83;109631;1250;59023;-78
2023/03/02 02:12:31;;;;;;;173.50;109.80;;;;;;;-5.06;100.00;99719.13;109410;1250;66835;-78
2023/03/02 02:15:00;;;;;;;175.30;107.10;;;;;;;-5.08;100.00;99715.48;109679;1250;59753;-78
2023/03/02 02:17:28;;;;;;;174.60;109.60;;;;;;;-5.10;100.00;99713.38;108682;1250;1002910;-79
2023/03/02 02:20:13;;;;;;;170.00;103.30;;;;;;;-5.12;100.00;99710.42;108855;1250;1002525;-78
2023/03/02 02:22:50;;;;;;;177.90;104.50;;;;;;;-5.17;100.00;99707.61;109394;1250;59036;-78
2023/03/02 02:25:38;;;;;;;164.20;106.40;;;;;;;-5.20;100.00;99707.06;108860;1250;1002246;-78
2023/03/02 02:28:12;;;;;;;170.50;107.20;;;;;;;-5.22;100.00;99705.66;109686;1250;60713;-78
2023/03/02 02:30:40;;;;;;;171.00;106.90;;;;;;;-5.23;100.00;99703.92;108818;1251;1002388;-77
2023/03/02 02:33:13;;;;;;;179.30;109.10;;;;;;;-5.25;100.00;99703.21;108864;1250;1002386;-78
2023/03/02 02:35:40;;;;;;;166.20;108.40;;;;;;;-5.25;100.00;99705.46;109677;1251;59485;-78
2023/03/02 02:38:10;;;;;;;164.80;106.20;;;;;;;-5.25;100.00;99707.02;109689;1250;66719;-78
2023/03/02 02:40:59;;;;;;;171.20;107.90;;;;;;;-5.25;100.00;99707.71;108924;1250;1002018;-79
2023/03/02 02:43:28;;;;;;;166.50;103.50;;;;;;;-5.25;100.00;99707.20;109652;1250;64145;-78
2023/03/02 02:45:56;;;;;;;173.80;108.00;;;;;;;-5.23;100.00;99705.83;109676;1250;59139;-78
2023/03/02 02:48:25;;;;;;;171.10;105.70;;;;;;;-5.22;100.00;99705.48;109642;1250;58998;-78
2023/03/02 02:50:59;;;;;;;175.50;107.60;;;;;;;-5.22;100.00;99704.44;108908;1250;1002753;-78
2023/03/02 02:53:43;;;;;;;176.30;108.60;;;;;;;-5.23;100.00;99700.80;109672;1250;61038;-78
2023/03/02 02:56:11;;;;;;;169.80;105.40;;;;;;;-5.23;100.00;99705.84;109599;1250;64738;-78
2023/03/02 02:58:40;;;;;;;171.60;108.20;;;;;;;-5.24;100.00;99709.45;109632;1250;58948;-78
2023/03/02 03:01:10;;;;;;;177.10;105.80;;;;;;;-5.26;100.00;99708.58;109654;1250;59023;-77
2023/03/02 03:03:38;;;;;;;170.30;107.30;;;;;;;-5.30;100.00;99709.94;108790;1250;1002153;-78
2023/03/02 03:06:12;;;;;;;176.20;105.90;;;;;;;-5.33;100.00;99702.98;109634;1250;59905;-78
2023/03/02 03:08:47;;;;;;;177.40;108.10;;;;;;;-5.34;100.00;99698.98;109631;1250;64800;-78
2023/03/02 03:11:22;;;;;;;177.30;111.40;;;;;;;-5.35;100.00;99693.61;109622;1250;59029;-77
2023/03/02 03:14:03;;;;;;;177.60;111.50;;;;;;;-5.36;100.00;99690.99;109677;1250;58961;-78
2023/03/02 03:16:31;;;;;;;170.90;106.70;;;;;;;-5.35;100.00;99688.77;109600;1250;65746;-78
2023/03/02 03:19:04;;;;;;;175.40;110.20;;;;;;;-5.33;100.00;99684.10;109368;1250;67422;-78
2023/03/02 03:21:31;;;;;;;177.20;111.50;;;;;;;-5.33;100.00;99677.52;109598;1250;64688;-79
2023/03/02 03:23:57;;;;;;;183.10;111.90;;;;;;;-5.32;100.00;99674.25;109607;1250;58996;-78
2023/03/02 03:26:24;;;;;;;182.70;115.40;;;;;;;-5.30;100.00;99671.30;109605;1250;61184;-79
2023/03/02 03:28:51;;;;;;;185.10;111.80;;;;;;;-5.27;100.00;99667.69;109642;1250;75864;-78
2023/03/02 03:31:18;;;;;;;184.50;116.20;;;;;;;-5.24;100.00;99668.06;108873;1250;1002583;-78
2023/03/02 03:33:44;;;;;;;192.20;121.30;;;;;;;-5.18;100.00;99666.38;108118;1250;1002331;-78
2023/03/02 03:36:11;;;;;;;206.20;125.30;;;;;;;-5.12;100.00;99664.86;108841;1250;1002474;-78
2023/03/02 03:38:38;;;;;;;191.40;115.30;;;;;;;-5.06;100.00;99664.38;108887;1250;1002537;-78
2023/03/02 03:41:05;;;;;;;180.70;112.90;;;;;;;-5.03;100.00;99665.27;109663;1250;66790;-78
2023/03/02 03:43:31;;;;;;;186.40;115.60;;;;;;;-5.03;100.00;99668.38;109659;1250;61056;-78
2023/03/02 03:45:58;;;;;;;178.40;112.10;;;;;;;-5.05;100.00;99666.28;109661;1250;63679;-77
2023/03/02 03:48:24;;;;;;;178.40;112.00;;;;;;;-5.09;100.00;99666.80;109611;1250;58967;-78
2023/03/02 03:50:51;;;;;;;176.80;112.80;;;;;;;-5.13;100.00;99666.41;109437;1250;59016;-77
2023/03/02 03:53:18;;;;;;;183.50;114.00;;;;;;;-5.16;100.00;99663.96;109423;1250;64442;-78
2023/03/02 03:55:44;;;;;;;187.50;114.40;;;;;;;-5.19;100.00;99657.52;109681;1250;59774;-78
2023/03/02 03:58:11;;;;;;;181.90;111.50;;;;;;;-5.20;100.00;99655.98;109434;1250;64211;-77
2023/03/02 04:00:37;;;;;;;186.50;115.40;;;;;;;-5.21;100.00;99652.33;109620;1250;59193;-78
2023/03/02 04:03:04;;;;;;;176.70;114.60;;;;;;;-5.21;100.00;99654.40;109363;1250;59405;-78
2023/03/02 04:05:31;;;;;;;182.00;113.10;;;;;;;-5.20;100.00;99654.23;109672;1250;66873;-77
2023/03/02 04:08:00;;;;;;;183.70;111.90;;;;;;;-5.20;100.00;99656.14;109689;1250;59747;-77
2023/03/02 04:10:28;;;;;;;177.20;108.40;;;;;;;-5.18;100.00;99657.02;109628;1250;64719;-77
2023/03/02 04:12:55;;;;;;;170.80;111.30;;;;;;;-5.19;100.00;99660.31;109616;1250;59037;-78
2023/03/02 04:15:22;;;;;;;179.30;112.40;;;;;;;-5.20;100.00;99659.60;109633;1250;59001;-78
2023/03/02 04:17:49;;;;;;;180.20;112.80;;;;;;;-5.21;100.00;99661.15;109672;1250;66010;-78
2023/03/02 04:20:18;;;;;;;183.30;114.50;;;;;;;-5.22;100.00;99656.99;109653;1250;60112;-78
2023/03/02 04:22:46;;;;;;;184.00;116.00;;;;;;;-5.21;100.00;99658.39;109543;1250;64688;-77
2023/03/02 04:25:18;;;;;;;188.70;118.70;;;;;;;-5.18;100.00;99657.90;109593;1251;58989;-78
2023/03/02 04:27:49;;;;;;;205.40;125.40;;;;;;;-5.18;100.00;99655.30;109661;1250;58914;-78
2023/03/02 04:30:19;;;;;;;192.50;123.70;;;;;;;-5.17;100.00;99655.81;109685;1250;66729;-77
2023/03/02 04:32:46;;;;;;;202.90;126.70;;;;;;;-5.17;100.00;99656.85;109393;1250;59107;-80
2023/03/02 04:35:13;;;;;;;191.40;122.30;;;;;;;-5.16;100.00;99660.32;109614;1250;64687;-77
2023/03/02 04:37:41;;;;;;;206.10;130.00;;;;;;;-5.17;100.00;99661.19;109629;1250;58944;-76
2023/03/02 04:40:09;;;;;;;195.50;123.40;;;;;;;-5.20;100.00;99657.53;108913;1250;1002056;-77
2023/03/02 04:42:35;;;;;;;190.90;124.90;;;;;;;-5.22;100.00;99655.96;109658;1250;65952;-78
2023/03/02 04:45:02;;;;;;;195.30;125.60;;;;;;;-5.24;100.00;99652.14;109616;1250;61326;-77
2023/03/02 04:47:29;;;;;;;194.90;125.40;;;;;;;-5.26;100.00;99646.75;109694;1250;65241;-78
2023/03/02 04:49:56;;;;;;;193.20;123.60;;;;;;;-5.26;100.00;99643.28;109630;1250;59024;-78
2023/03/02 04:52:24;;;;;;;196.10;123.40;;;;;;;-5.25;100.00;99639.65;109656;1250;59354;-78
2023/03/02 04:54:51;;;;;;;193.20;121.80;;;;;;;-5.25;100.00;99638.79;109627;1250;66210;-79
2023/03/02 04:57:17;;;;;;;183.10;118.00;;;;;;;-5.26;100.00;99639.31;109658;1250;69399;-79
2023/03/02 04:59:44;;;;;;;179.30;117.10;;;;;;;-5.28;100.00;99637.03;109639;1250;70570;-79
2023/03/02 05:02:11;;;;;;;196.00;121.40;;;;;;;-5.28;100.00;99636.69;109616;1250;59308;-78
2023/03/02 05:04:39;;;;;;;180.80;117.50;;;;;;;-5.29;100.00;99633.23;109620;1250;58895;-78
2023/03/02 05:07:05;;;;;;;188.20;121.20;;;;;;;-5.29;100.00;99632.00;108839;1250;1002903;-77
2023/03/02 05:09:32;;;;;;;177.70;113.40;;;;;;;-5.31;100.00;99635.45;108600;1254;1003064;-78
2023/03/02 05:12:00;;;;;;;176.50;115.50;;;;;;;-5.30;100.00;99636.84;109682;1250;59070;-78
2023/03/02 05:14:27;;;;;;;181.00;115.40;;;;;;;-5.30;100.00;99640.66;108841;1250;1002434;-77
2023/03/02 05:16:54;;;;;;;180.80;115.70;;;;;;;-5.29;100.00;99640.50;109602;1250;59318;-78
2023/03/02 05:19:21;;;;;;;189.40;122.60;;;;;;;-5.31;100.00;99643.09;109700;1250;65724;-78
2023/03/02 05:21:47;;;;;;;184.50;121.50;;;;;;;-5.34;100.00;99643.05;109605;1250;68115;-79
2023/03/02 05:24:14;;;;;;;185.90;122.60;;;;;;;-5.38;100.00;99646.13;109647;1250;71481;-79
2023/03/02 05:26:41;;;;;;;193.30;122.90;;;;;;;-5.41;100.00;99648.55;109600;1250;58916;-78
2023/03/02 05:29:08;;;;;;;183.40;117.80;;;;;;;-5.42;100.00;99651.47;109641;1250;59475;-79
2023/03/02 05:31:39;;;;;;;180.10;115.60;;;;;;;-5.44;100.00;99651.46;109331;1250;64441;-79
2023/03/02 05:34:09;;;;;;;177.60;115.70;;;;;;;-5.44;100.00;99653.02;108149;1250;1002307;-79
2023/03/02 05:36:36;;;;;;;;;;;;;;;-5.46;100.00;99654.05;109644;1250;63742;-79
2023/03/02 05:39:05;;;;;;;178.90;109.10;;;;;;;-5.47;100.00;99654.88;109633;1250;58956;-79
2023/03/02 05:41:31;;;;;;;172.20;112.10;;;;;;;-5.48;100.00;99659.91;109662;1250;58968;-79
2023/03/02 05:43:58;;;;;;;177.80;115.10;;;;;;;-5.48;100.00;99663.19;109622;1250;66917;-78
2023/03/02 05:46:25;;;;;;;177.80;115.90;;;;;;;-5.48;100.00;99663.38;108872;1250;1002234;-77
2023/03/02 05:48:52;;;;;;;184.10;116.50;;;;;;;-5.45;100.00;99664.45;109583;1250;64746;-79
2023/03/02 05:51:19;;;;;;;179.70;117.10;;;;;;;-5.41;100.00;99663.25;109595;1250;58953;-78
2023/03/02 05:53:46;;;;;;;173.90;116.30;;;;;;;-5.37;100.00;99664.49;109651;1250;59129;-79
2023/03/02 05:56:12;;;;;;;176.40;115.00;;;;;;;-5.31;100.00;99664.20;108877;1250;1002295;-78
2023/03/02 05:58:39;;;;;;;168.10;110.00;;;;;;;-5.22;100.00;99669.11;108747;1250;1002246;-75
2023/03/02 06:01:10;;;;;;;175.70;116.20;;;;;;;-5.14;100.00;99673.16;109654;1250;59094;-77
2023/03/02 06:03:36;;;;;;;175.70;114.70;;;;;;;-5.08;100.00;99669.20;109428;1250;59099;-78
2023/03/02 06:06:03;;;;;;;178.40;114.50;;;;;;;-5.00;100.00;99666.15;109724;1250;58923;-79
2023/03/02 06:08:30;;;;;;;177.00;112.80;;;;;;;-4.92;100.00;99668.10;109706;1250;75573;-80
2023/03/02 06:10:57;;;;;;;175.50;117.00;;;;;;;-4.84;100.00;99670.23;109658;1250;61262;-78
2023/03/02 06:13:23;;;;;;;171.10;114.30;;;;;;;-4.77;100.00;99670.96;109621;1250;64181;-79
2023/03/02 06:15:50;;;;;;;174.60;115.30;;;;;;;-4.68;100.00;99674.83;109626;1250;58989;-79
2023/03/02 06:18:17;;;;;;;178.20;116.70;;;;;;;-4.61;100.00;99676.95;109635;1250;58884;-79
2023/03/02 06:20:43;;;;;;;170.50;117.20;;;;;;;-4.52;100.00;99679.95;109614;1250;67067;-78
2023/03/02 06:23:10;;;;;;;181.00;118.20;;;;;;;-4.42;100.00;99682.07;109683;1250;61143;-77
2023/03/02 06:25:46;;;;;;;167.60;114.50;;;;;;;-4.33;100.00;99679.86;109592;1250;63948;-78
2023/03/02 06:28:18;;;;;;;181.90;116.10;;;;;;;-4.22;100.00;99680.60;109421;1254;58985;-78
2023/03/02 06:30:47;;;;;;;175.10;114.40;;;;;;;-4.11;100.00;99681.48;109471;1250;59095;-77
2023/03/02 06:33:15;;;;;;;172.50;113.80;;;;;;;-4.00;100.00;99681.01;109680;1250;65950;-78
2023/03/02 06:35:42;;;;;;;181.40;112.00;;;;;;;-3.89;100.00;99685.39;109641;1250;60882;-78
2023/03/02 06:38:08;;;;;;;172.10;114.70;;;;;;;-3.78;100.00;99685.23;108866;1250;1002269;-78
2023/03/02 06:40:35;;;;;;;172.70;117.30;;;;;;;-3.66;100.00;99686.30;108593;1250;1002819;-78
2023/03/02 06:43:02;;;;;;;172.60;115.20;;;;;;;-3.55;100.00;99688.56;109641;1250;58951;-78
2023/03/02 06:45:32;;;;;;;174.10;113.60;;;;;;;-3.43;100.00;99684.75;109624;1250;65994;-78
2023/03/02 06:48:00;;;;;;;166.20;114.20;;;;;;;-3.31;100.00;99684.77;109681;1250;60577;-78
2023/03/02 06:50:27;;;;;;;177.60;118.60;;;;;;;-3.19;100.00;99684.77;109623;1250;65274;-79
2023/03/02 06:52:54;;;;;;;173.70;114.30;;;;;;;-3.07;100.00;99684.58;109637;1250;58967;-78
2023/03/02 06:55:21;;;;;;;179.00;116.90;;;;;;;-2.96;100.00;99680.40;109659;1250;58963;-74
2023/03/02 06:57:47;;;;;;;193.80;119.40;;;;;;;-2.84;100.00;99678.30;109631;1250;67112;-78
2023/03/02 07:00:23;;;;;;;181.20;116.60;;;;;;;-2.72;100.00;99669.39;109658;1250;59662;-78
2023/03/02 07:02:50;;;;;;;173.40;115.10;;;;;;;-2.60;100.00;99671.27;109332;1250;65071;-78
2023/03/02 07:05:18;;;;;;;163.00;111.00;;;;;;;-2.48;100.00;99667.92;109673;1250;59014;-78
2023/03/02 07:07:44;;;;;;;167.90;114.40;;;;;;;-2.37;100.00;99672.92;109614;1250;58842;-78
2023/03/02 07:10:12;;;;;;;173.40;111.40;;;;;;;-2.27;100.00;99671.50;109498;1250;67033;-77
2023/03/02 07:12:40;;;;;;;160.20;105.50;;;;;;;-2.14;100.00;99672.48;109669;1250;60935;-78
2023/03/02 07:15:10;;;;;;;164.50;105.00;;;;;;;-2.02;100.00;99670.16;109620;1250;63728;-78
2023/03/02 07:17:38;;;;;;;160.00;105.80;;;;;;;-1.90;100.00;99667.14;109615;1250;58964;-77
2023/03/02 07:20:05;;;;;;;155.40;105.30;;;;;;;-1.78;100.00;99669.50;109646;1250;59016;-78
2023/03/02 07:22:32;;;;;;;152.00;103.60;;;;;;;-1.66;100.00;99668.38;109319;1250;67085;-78
2023/03/02 07:24:59;;;;;;;155.40;103.90;;;;;;;-1.54;100.00;99670.74;108900;1250;1003141;-79
2023/03/02 07:27:26;;;;;;;156.50;103.30;;;;;;;-1.44;100.00;99667.18;109624;1250;65094;-78
2023/03/02 07:29:52;;;;;;;143.00;96.70;;;;;;;-1.32;100.00;99665.18;109660;1250;59033;-78
2023/03/02 07:32:21;;;;;;;144.40;93.40;;;;;;;-1.21;100.00;99662.11;109483;1250;58990;-79
2023/03/02 07:34:48;;;;;;;135.60;91.00;;;;;;;-1.07;100.00;99660.08;109319;1250;76002;-79
2023/03/02 07:37:15;;;;;;;135.70;92.00;;;;;;;-0.96;100.00;99660.67;109660;1250;59006;-79
2023/03/02 07:39:41;;;;;;;131.40;91.50;;;;;;;-0.85;100.00;99659.70;109634;1250;64705;-79
2023/03/02 07:42:11;;;;;;;134.80;85.30;;;;;;;-0.74;100.00;99659.23;109604;1250;59096;-78
2023/03/02 07:44:38;;;;;;;109.50;74.00;;;;;;;-0.62;100.00;99661.71;109677;1250;59165;-78
2023/03/02 07:47:05;;;;;;;109.10;68.30;;;;;;;-0.51;100.00;99660.19;109633;1250;64739;-78
2023/03/02 07:49:32;;;;;;;108.90;69.60;;;;;;;-0.40;100.00;99657.63;109684;1250;61294;-78
2023/03/02 07:51:58;;;;;;;102.60;65.40;;;;;;;-0.28;100.00;99657.14;109655;1250;64234;-79
2023/03/02 07:54:26;;;;;;;97.40;61.90;;;;;;;-0.17;100.00;99653.52;109291;1250;59069;-78
2023/03/02 07:56:53;;;;;;;82.30;54.00;;;;;;;-0.05;100.00;99652.81;109659;1250;59027;-78
2023/03/02 07:59:19;;;;;;;88.30;55.70;;;;;;;0.07;100.00;99655.98;109663;1250;67130;-78
2023/03/02 08:01:46;;;;;;;81.80;53.30;;;;;;;0.16;100.00;99657.77;109310;1250;61460;-78
2023/03/02 08:04:13;;;;;;;78.70;51.30;;;;;;;0.26;100.00;99654.14;109583;1250;64147;-76
2023/03/02 08:06:40;;;;;;;77.40;50.20;;;;;;;0.36;100.00;99658.88;109636;1250;58973;-79
2023/03/02 08:09:06;;;;;;;77.50;49.30;;;;;;;0.48;100.00;99652.75;109646;1250;58932;-78
2023/03/02 08:11:33;;;;;;;81.00;52.50;;;;;;;0.60;100.00;99645.94;109474;1250;67211;-76
2023/03/02 08:14:01;;;;;;;82.50;52.10;;;;;;;0.72;100.00;99645.04;109637;1250;61077;-77
2023/03/02 08:16:28;;;;;;;77.20;52.50;;;;;;;0.84;100.00;99647.12;109689;1250;65293;-77
2023/03/02 08:18:55;;;;;;;81.70;50.50;;;;;;;0.93;100.00;99644.85;109638;1250;58967;-77
2023/03/02 08:21:24;;;;;;;81.20;53.90;;;;;;;1.04;100.00;99638.89;109304;1250;59324;-78
2023/03/02 08:23:53;;;;;;;74.70;49.30;;;;;;;1.14;100.00;99643.96;109686;1250;67393;-78
2023/03/02 08:26:20;;;;;;;72.80;48.90;;;;;;;1.24;100.00;99641.85;109690;1250;60068;-78
2023/03/02 08:28:47;;;;;;;75.70;49.80;;;;;;;1.35;100.00;99640.95;109627;1250;65036;-78
2023/03/02 08:31:14;;;;;;;82.50;55.10;;;;;;;1.45;100.00;99641.45;109600;1250;59002;-78
2023/03/02 08:33:44;;;;;;;74.10;50.50;;;;;;;1.56;100.00;99639.48;109641;1250;58919;-77
2023/03/02 08:36:14;;;;;;;76.10;52.50;;;;;;;1.67;100.00;99637.68;109629;1250;66089;-78
2023/03/02 08:38:41;;;;;;;79.90;53.60;;;;;;;1.78;100.00;99635.72;109635;1250;61233;-78
2023/03/02 08:41:12;;;;;;;84.20;55.60;;;;;;;1.87;100.00;99633.60;109705;1250;65150;-78
2023/03/02 08:43:40;;;;;;;84.10;57.30;;;;;;;1.98;100.00;99631.25;109671;1250;58965;-78
2023/03/02 08:46:07;;;;;;;82.50;56.30;;;;;;;2.11;100.00;99632.70;109650;1250;59064;-78
2023/03/02 08:48:34;;;;;;;87.30;64.40;;;;;;;2.24;100.00;99631.02;109555;1250;67138;-78
2023/03/02 08:51:06;;;;;;;86.50;62.00;;;;;;;2.35;100.00;99629.52;109660;1250;61078;-78
2023/03/02 08:53:37;;;;;;;81.00;56.60;;;;;;;2.49;100.00;99628.34;109666;1250;65180;-78
2023/03/02 08:56:06;;;;;;;89.80;57.30;;;;;;;2.60;100.00;99626.31;109604;1254;58954;-78
2023/03/02 08:58:33;;;;;;;71.20;50.70;;;;;;;2.70;100.00;99619.21;109663;1250;59079;-78
2023/03/02 09:00:59;;;;;;;78.90;54.10;;;;;;;2.81;100.00;99617.37;109733;1250;67252;-78
2023/03/02 09:03:26;;;;;;;231.40;121.40;;;;;;;2.91;100.00;99621.85;109514;1250;59789;-79
2023/03/02 09:05:53;;;;;;;124.10;76.80;;;;;;;3.00;100.00;99623.21;109651;1250;63528;-77
2023/03/02 09:08:20;;;;;;;87.10;58.50;;;;;;;3.05;100.00;99620.60;109667;1250;59003;-77
2023/03/02 09:10:46;;;;;;;81.80;54.80;;;;;;;3.12;100.00;99617.80;109691;1250;58941;-78
2023/03/02 09:13:13;;;;;;;76.70;52.70;;;;;;;3.17;100.00;99616.61;109526;1250;67262;-79
2023/03/02 09:15:40;;;;;;;71.10;50.30;;;;;;;3.25;100.00;99619.55;109322;1250;60132;-78
2023/03/02 09:18:06;;;;;;;68.00;47.70;;;;;;;3.34;100.00;99620.73;109658;1250;65095;-78
2023/03/02 09:20:33;;;;;;;60.20;44.00;;;;;;;3.43;100.00;99619.41;109525;1250;59007;-79
2023/03/02 09:23:00;;;;;;;62.20;45.20;;;;;;;3.54;100.00;99616.48;109631;1250;59000;-78
2023/03/02 09:25:26;;;;;;;66.40;47.10;;;;;;;3.64;100.00;99618.13;109682;1250;66666;-78
2023/03/02 09:27:53;;;;;;;63.70;43.50;;;;;;;3.71;100.00;99618.97;109661;1250;61096;-79
2023/03/02 09:30:20;;;;;;;58.90;41.30;;;;;;;3.81;100.00;99616.93;109663;1250;64138;-79
2023/03/02 09:32:47;;;;;;;55.40;39.60;;;;;;;3.92;100.00;99613.79;109653;1250;58947;-78
2023/03/02 09:35:14;;;;;;;54.80;38.00;;;;;;;4.01;100.00;99614.76;109666;1250;58860;-77
2023/03/02 09:37:41;;;;;;;56.60;39.60;;;;;;;4.08;100.00;99613.12;109506;1250;67173;-78
2023/03/02 09:40:22;;;;;;;56.20;39.50;;;;;;;4.15;100.00;99609.91;109638;1250;60070;-78
2023/03/02 09:43:07;;;;;;;54.70;36.10;;;;;;;4.24;100.00;99608.94;109689;1250;65136;-78
2023/03/02 09:45:59;;;;;;;48.00;32.90;;;;;;;4.35;100.00;99602.61;109650;1250;58920;-78
2023/03/02 09:49:03;;;;;;;48.00;33.50;;;;;;;4.44;99.25;99601.29;109730;1250;58924;-78
2023/03/02 09:51:49;;;;;;;141.80;69.50;;;;;;;4.54;98.57;99597.27;109673;1250;67269;-79
2023/03/02 09:54:19;;;;;;;47.20;31.70;;;;;;;4.66;97.35;99598.29;109657;1250;61600;-78
2023/03/02 09:56:53;;;;;;;46.10;31.30;;;;;;;4.72;95.87;99589.27;109677;1250;65276;-77
2023/03/02 09:59:41;;;;;;;44.40;30.10;;;;;;;4.78;94.17;99588.86;109750;1250;59056;-78
2023/03/02 10:02:25;;;;;;;38.70;26.10;;;;;;;4.88;93.38;99585.39;109736;1250;59058;-77
2023/03/02 10:04:55;;;;;;;46.20;29.40;;;;;;;4.99;90.85;99583.26;109532;1250;66871;-78
2023/03/02 10:07:29;;;;;;;45.40;32.00;;;;;;;5.06;90.20;99578.23;109714;1250;61346;-78
2023/03/02 10:10:06;;;;;;;35.00;24.80;;;;;;;5.16;89.97;99579.13;108865;1250;1002405;-78
2023/03/02 10:12:47;;;;;;;34.10;24.40;;;;;;;5.26;89.63;99577.18;109638;1251;58872;-77
2023/03/02 10:15:29;;;;;;;34.90;26.00;;;;;;;5.38;88.86;99569.52;109696;1250;59027;-78
2023/03/02 10:18:11;;;;;;;32.40;23.10;;;;;;;5.52;87.11;99564.77;109672;1250;67110;-78
2023/03/02 10:20:50;;;;;;;30.30;20.70;;;;;;;5.63;84.34;99568.05;109653;1250;60310;-78
2023/03/02 10:23:33;;;;;;;31.50;22.20;;;;;;;5.67;82.36;99560.67;109648;1250;65016;-78
2023/03/02 10:26:28;;;;;;;30.10;21.30;;;;;;;5.72;81.78;99557.67;109612;1250;59211;-78
2023/03/02 10:29:32;;;;;;;31.70;22.50;;;;;;;5.77;81.90;99553.43;109677;1250;58845;-78
2023/03/02 10:32:12;;;;;;;28.80;20.60;;;;;;;5.87;81.97;99549.52;109329;1250;65803;-79
2023/03/02 10:34:39;;;;;;;27.10;19.90;;;;;;;5.97;80.13;99545.46;109705;1250;60055;-79
2023/03/02 10:37:32;;;;;;;25.80;19.00;;;;;;;6.05;80.59;99544.26;109676;1250;64012;-78
2023/03/02 10:39:58;;;;;;;25.40;16.90;;;;;;;6.21;80.29;99543.81;109093;1257;59071;-78
2023/03/02 10:42:32;;;;;;;20.90;15.90;;;;;;;6.26;75.18;99537.80;108969;1256;59004;-77
2023/03/02 10:45:17;;;;;;;22.60;17.00;;;;;;;6.27;75.97;99528.23;109115;1256;66106;-78
2023/03/02 10:47:44;;;;;;;20.20;14.80;;;;;;;6.34;76.23;99526.15;109118;1256;60917;-78
2023/03/02 10:50:20;;;;;;;18.90;14.70;;;;;;;6.42;75.81;99526.54;108798;1256;445981;-78
2023/03/02 10:52:48;;;;;;;18.10;12.30;;;;;;;6.46;75.04;99525.46;109017;1256;60008;-78
2023/03/02 10:55:16;;;;;;;16.60;12.90;;;;;;;6.52;73.49;99520.31;109149;1256;59072;-79
2023/03/02 10:57:45;;;;;;;18.50;14.80;;;;;;;6.59;74.05;99515.20;109122;1257;66063;-79
2023/03/02 11:00:17;;;;;;;22.60;15.00;;;;;;;6.69;72.61;99508.27;109019;1256;60337;-79
2023/03/02 11:02:53;;;;;;;17.80;13.30;;;;;;;6.78;73.35;99506.66;109112;1256;64194;-78